Current Weather

Bay Bridge Airport

Bay Bridge Airport, Maryland (KW29)

Report from: Wednesday, May 29, 2024 4:45 AM EDT
Current time: Wednesday, May 29, 2024 5:07 AM EDT

Nearby weather – Weather history – Daily summaries
Weather forecast

Temperature17.6°C (63.7°F)
Dew point14.3°C (57.7°F)
Winds 4 kts (2.1 m/s, 4.6 mph) Northwest (310°)
Visibility10 mi. (16.1 km)
Clouds Sky clear
Altimeter29.92 in.Hg (1013 mB)
Relative humidity81 %
Density altitude533 ft. (162 m)
Remarks Fully automated report
Automated weather observing station with precipitation discriminator
Flight conditions Visual Meteorological Conditions
Raw dataKW29 290845Z AUTO 31004KT 10SM CLR 18/14 A2992 RMK AO2 T01760143
An error has occurred. This application may no longer respond until reloaded. Reload 🗙